Hawthorne, California
Current Conditions -  °F | °C
As of 1:53 AM on Thursday 29 Jan 2015 (Local Time) from KHHR Reporting Station
Clear Clear  
Wind Chill: 17°   Ceiling: Unl
Heat Index: 17°   Visibility: 10mi
Dew Point:   Wind: 0mph
Humidity: 60%   Direction: NA
Pressure: 30.05"   Gusts: NA
Location:  33.92°N, 118.35°W
Report Text: KHHR 290953Z AUTO 00000KT 10SM CLR 17/09 A3005 RMK AO2 SLP173 T01720094 TSNO
Loading
Personal Weather Stations






























Interactive Weather Map New forecast layout! Learn more

10-Day Weather Forecast

Advertisements
Track Severe Weather on mobile